createdAt,value
2023-02-17T00:01:34.451Z,52.65
2023-02-17T00:04:02.940Z,68.53
2023-02-17T00:06:32.606Z,55.37
2023-02-17T00:09:00.819Z,50.80
2023-02-17T00:11:29.103Z,52.78
2023-02-17T00:13:57.933Z,56.08
2023-02-17T00:16:28.201Z,47.50
2023-02-17T00:18:59.714Z,51.73
2023-02-17T00:21:30.045Z,57.35
2023-02-17T00:23:59.716Z,51.80
2023-02-17T00:26:27.816Z,49.00
2023-02-17T00:28:55.830Z,50.90
2023-02-17T00:31:24.309Z,51.47
2023-02-17T00:33:56.117Z,55.03
2023-02-17T00:36:25.579Z,50.08
2023-02-17T00:38:55.706Z,48.65
2023-02-17T00:41:24.585Z,53.03
2023-02-17T00:43:52.560Z,52.00
2023-02-17T00:46:21.252Z,50.15
2023-02-17T00:48:49.952Z,55.55
2023-02-17T00:51:18.596Z,54.92
2023-02-17T00:53:47.280Z,57.83
2023-02-17T00:56:18.959Z,56.60
2023-02-17T00:58:47.283Z,55.20
2023-02-17T01:01:15.732Z,63.17
2023-02-17T01:03:44.182Z,65.28
2023-02-17T01:06:23.075Z,61.90
2023-02-17T01:08:51.365Z,61.00
2023-02-17T01:11:21.188Z,72.65
2023-02-17T01:13:50.044Z,69.22
2023-02-17T01:16:27.560Z,72.80
2023-02-17T01:18:56.293Z,69.15
2023-02-17T01:21:26.864Z,72.53
2023-02-17T01:23:57.015Z,73.13
2023-02-17T01:26:27.547Z,70.32
2023-02-17T01:28:56.324Z,56.95
2023-02-17T01:31:25.428Z,62.15
2023-02-17T01:33:58.653Z,75.40
2023-02-17T01:36:26.903Z,64.47
2023-02-17T01:38:54.896Z,75.53
2023-02-17T01:41:27.943Z,78.00
2023-02-17T01:44:23.485Z,70.03
2023-02-17T01:46:53.912Z,72.80
2023-02-17T01:49:38.479Z,76.20
2023-02-17T01:52:20.122Z,68.13
2023-02-17T01:54:55.187Z,66.13
2023-02-17T01:57:27.869Z,74.15
2023-02-17T01:59:57.655Z,68.93
2023-02-17T02:02:25.609Z,80.28
2023-02-17T02:04:54.376Z,75.60
2023-02-17T02:07:42.956Z,83.35
2023-02-17T02:10:13.482Z,82.53
2023-02-17T02:12:42.218Z,82.00
2023-02-17T02:15:18.992Z,78.30
2023-02-17T02:18:00.238Z,94.07
2023-02-17T02:20:31.220Z,97.55
2023-02-17T02:23:37.273Z,86.13
2023-02-17T02:26:32.968Z,90.50
2023-02-17T02:29:32.264Z,93.88
2023-02-17T02:32:20.713Z,87.47
2023-02-17T02:35:01.435Z,101.55
2023-02-17T02:37:39.256Z,96.53
2023-02-17T02:40:10.352Z,99.17
2023-02-17T02:42:39.820Z,91.85
2023-02-17T02:45:11.582Z,105.32
2023-02-17T02:47:55.342Z,101.90
2023-02-17T02:50:37.623Z,96.72
2023-02-17T02:53:31.794Z,110.40
2023-02-17T02:56:12.353Z,97.38
2023-02-17T02:59:09.451Z,100.53
2023-02-17T03:01:53.400Z,104.85
2023-02-17T03:04:27.520Z,105.45
2023-02-17T03:07:02.134Z,96.00
2023-02-17T03:09:31.227Z,112.25
2023-02-17T03:11:59.701Z,103.50
2023-02-17T03:14:28.974Z,104.22
2023-02-17T03:16:56.716Z,101.43
2023-02-17T03:19:28.845Z,100.90
2023-02-17T03:22:07.757Z,98.90
2023-02-17T03:24:36.521Z,97.80
2023-02-17T03:27:07.329Z,95.05
2023-02-17T03:34:25.713Z,85.57
2023-02-17T03:36:54.896Z,104.30
2023-02-17T03:39:22.571Z,85.30
2023-02-17T03:41:52.093Z,113.97
2023-02-17T03:44:20.292Z,101.28
2023-02-17T03:46:48.295Z,97.53
2023-02-17T03:49:16.104Z,102.10
2023-02-17T03:51:44.238Z,91.32
2023-02-17T03:54:12.005Z,81.93
2023-02-17T03:56:40.044Z,86.13
2023-02-17T03:59:07.819Z,144.53
2023-02-17T04:01:35.961Z,96.65
2023-02-17T04:04:03.900Z,92.40
2023-02-17T04:06:32.113Z,93.20
2023-02-17T04:08:59.831Z,77.50
2023-02-17T04:11:28.095Z,78.40
2023-02-17T04:13:56.013Z,73.68
2023-02-17T04:16:24.153Z,88.80
2023-02-17T04:18:51.810Z,78.97
2023-02-17T04:21:20.090Z,96.20
2023-02-17T04:23:47.777Z,93.03
2023-02-17T04:26:15.937Z,104.05
2023-02-17T04:28:44.388Z,96.35
2023-02-17T04:31:15.613Z,103.45
2023-02-17T04:33:43.536Z,98.70
2023-02-17T04:36:12.229Z,93.33
2023-02-17T04:38:40.422Z,93.78
2023-02-17T04:41:08.640Z,107.00
2023-02-17T04:43:36.479Z,83.43
2023-02-17T04:46:05.155Z,95.03
2023-02-17T04:48:33.131Z,92.13
2023-02-17T04:51:01.321Z,99.82
2023-02-17T04:53:29.537Z,100.43
2023-02-17T04:55:57.900Z,91.55
2023-02-17T04:58:25.972Z,97.80
2023-02-17T05:00:54.016Z,97.67
2023-02-17T05:03:21.926Z,96.35
2023-02-17T05:05:50.367Z,102.10
2023-02-17T05:08:18.265Z,96.28
2023-02-17T05:10:46.472Z,86.03
2023-02-17T05:13:14.319Z,91.20
2023-02-17T05:15:44.346Z,93.88
2023-02-17T05:18:13.598Z,108.40
2023-02-17T05:20:42.041Z,89.05
2023-02-17T05:23:09.891Z,89.68
2023-02-17T05:25:38.563Z,93.63
2023-02-17T05:28:06.732Z,104.38
2023-02-17T05:30:34.753Z,103.40
2023-02-17T05:33:02.527Z,88.88
2023-02-17T05:35:30.730Z,92.78
2023-02-17T05:37:58.847Z,95.90
2023-02-17T05:40:26.995Z,101.03
2023-02-17T05:42:54.731Z,92.57
2023-02-17T05:45:22.856Z,94.20
2023-02-17T05:47:50.763Z,93.35
2023-02-17T05:50:18.952Z,92.83
2023-02-17T05:52:49.951Z,109.72
2023-02-17T05:55:18.339Z,90.28
2023-02-17T05:57:46.011Z,94.05
2023-02-17T06:00:14.844Z,94.30
2023-02-17T06:02:42.572Z,72.93
2023-02-17T06:05:11.803Z,88.60
2023-02-17T06:07:39.762Z,96.22
2023-02-17T06:10:09.064Z,74.18
2023-02-17T06:12:37.066Z,105.50
2023-02-17T06:15:05.732Z,90.20
2023-02-17T06:17:33.412Z,123.35
2023-02-17T06:20:01.698Z,109.10
2023-02-17T06:22:29.443Z,87.15
2023-02-17T06:24:57.737Z,138.15
2023-02-17T06:27:25.783Z,83.87
2023-02-17T06:29:54.182Z,90.20
2023-02-17T06:32:22.154Z,80.82
2023-02-17T06:34:50.388Z,88.82
2023-02-17T06:37:18.059Z,88.05
2023-02-17T06:39:46.424Z,94.17
2023-02-17T06:42:14.194Z,79.43
2023-02-17T06:44:42.392Z,90.55
2023-02-17T06:47:10.240Z,97.82
2023-02-17T06:49:40.681Z,81.63
2023-02-17T06:52:08.914Z,63.60
2023-02-17T06:54:37.088Z,80.95
2023-02-17T06:57:05.073Z,71.80
2023-02-17T06:59:33.930Z,88.53
2023-02-17T07:02:02.612Z,82.13
2023-02-17T07:04:31.020Z,72.93
2023-02-17T07:06:58.823Z,72.43
2023-02-17T07:09:27.135Z,86.53
2023-02-17T07:11:55.328Z,91.03
2023-02-17T07:14:25.053Z,84.10
2023-02-17T07:16:53.565Z,92.77
2023-02-17T07:19:21.787Z,80.22
2023-02-17T07:21:49.782Z,89.93
2023-02-17T07:24:18.008Z,97.75
2023-02-17T07:26:50.154Z,94.32
2023-02-17T07:29:18.219Z,90.60
2023-02-17T07:31:46.117Z,104.50
2023-02-17T07:34:14.448Z,91.53
2023-02-17T07:36:42.604Z,100.82
2023-02-17T07:39:10.918Z,89.63
2023-02-17T07:41:38.824Z,105.73
2023-02-17T07:44:11.219Z,96.80
2023-02-17T07:46:42.934Z,93.88
2023-02-17T07:49:11.409Z,91.47
2023-02-17T07:51:39.108Z,81.75
2023-02-17T07:54:07.493Z,93.23
2023-02-17T07:56:35.144Z,128.15
2023-02-17T07:59:03.355Z,106.22
2023-02-17T08:01:30.992Z,97.45
2023-02-17T08:03:59.131Z,70.40
2023-02-17T08:06:27.725Z,80.83
2023-02-17T08:09:15.416Z,103.10
2023-02-17T08:12:03.086Z,84.90
2023-02-17T08:14:33.843Z,76.18
2023-02-17T08:17:02.185Z,81.88
2023-02-17T08:19:46.552Z,89.50
2023-02-17T08:22:17.710Z,85.05
2023-02-17T08:24:46.086Z,88.68
2023-02-17T08:27:15.655Z,77.95
2023-02-17T08:29:45.257Z,75.88
2023-02-17T08:32:15.072Z,67.77
2023-02-17T08:34:44.136Z,68.80
2023-02-17T08:37:12.927Z,76.53
2023-02-17T08:39:41.497Z,65.70
2023-02-17T08:42:10.876Z,69.75
2023-02-17T08:44:39.296Z,68.60
2023-02-17T08:47:08.055Z,63.03
2023-02-17T08:49:36.577Z,65.60
2023-02-17T08:52:05.691Z,62.13
2023-02-17T08:54:34.958Z,65.45
2023-02-17T08:57:03.163Z,61.63
2023-02-17T08:59:31.641Z,64.45
2023-02-17T09:01:59.646Z,56.20
2023-02-17T09:04:27.970Z,56.88
2023-02-17T09:06:57.267Z,56.92
2023-02-17T09:09:27.383Z,56.03
2023-02-17T09:11:58.018Z,58.70
2023-02-17T09:14:27.200Z,60.08
2023-02-17T09:16:56.312Z,59.88
2023-02-17T09:19:25.981Z,58.20
2023-02-17T09:21:54.695Z,62.83
2023-02-17T09:24:23.002Z,68.85
2023-02-17T09:26:51.526Z,63.75
2023-02-17T09:29:20.294Z,72.90
2023-02-17T09:31:48.354Z,83.47
2023-02-17T09:34:16.828Z,67.17
2023-02-17T09:36:45.200Z,64.30
2023-02-17T09:39:15.041Z,74.85
2023-02-17T09:41:52.584Z,53.22
2023-02-17T09:44:51.249Z,55.67
2023-02-17T09:51:04.699Z,59.33
2023-02-17T09:54:16.589Z,54.03
2023-02-17T09:56:51.074Z,51.22
2023-02-17T09:59:25.520Z,51.85
2023-02-17T10:01:55.892Z,55.23
2023-02-17T10:04:40.573Z,56.33
2023-02-17T10:07:21.339Z,57.58
2023-02-17T10:10:23.203Z,63.03
2023-02-17T10:13:08.078Z,97.22
2023-02-17T10:16:01.832Z,94.40
2023-02-17T10:18:38.309Z,63.38
2023-02-17T10:21:58.849Z,65.20
2023-02-17T10:27:30.628Z,59.35
2023-02-17T10:30:24.583Z,57.47
2023-02-17T10:33:25.503Z,57.15
2023-02-17T10:36:09.076Z,64.07
2023-02-17T10:39:02.257Z,68.50
2023-02-17T10:41:39.399Z,56.80
2023-02-17T10:44:18.306Z,56.97
2023-02-17T10:46:48.983Z,54.17
2023-02-17T10:49:35.136Z,59.05
2023-02-17T10:52:22.784Z,58.03
2023-02-17T10:55:01.152Z,66.45
2023-02-17T10:57:36.280Z,58.90
2023-02-17T11:00:16.049Z,54.85
2023-02-17T11:02:47.743Z,53.05
2023-02-17T11:09:00.650Z,60.00
2023-02-17T11:11:40.304Z,68.97
2023-02-17T11:14:32.471Z,60.45
2023-02-17T11:17:52.995Z,56.20
2023-02-17T11:20:35.668Z,53.58
2023-02-17T11:27:27.849Z,55.83
2023-02-17T11:30:16.312Z,54.53
2023-02-17T11:32:47.067Z,66.45
2023-02-17T11:35:29.025Z,75.13
2023-02-17T11:38:11.848Z,62.38
2023-02-17T11:40:41.054Z,68.17
2023-02-17T11:43:19.685Z,63.08
2023-02-17T11:46:09.911Z,59.00
2023-02-17T11:49:13.600Z,63.22
2023-02-17T11:52:03.199Z,62.10
2023-02-17T11:55:01.694Z,63.50
2023-02-17T11:57:36.769Z,62.90
2023-02-17T12:00:19.384Z,64.20
2023-02-17T12:03:17.068Z,61.65
2023-02-17T12:05:53.658Z,59.70
2023-02-17T12:08:51.061Z,67.07
2023-02-17T12:11:36.032Z,64.95
2023-02-17T12:14:46.106Z,64.72
2023-02-17T12:17:17.829Z,66.25
2023-02-17T12:20:19.149Z,74.38
2023-02-17T12:23:00.585Z,67.87
2023-02-17T12:25:38.338Z,65.00
2023-02-17T12:28:36.759Z,65.18
2023-02-17T12:31:23.542Z,65.57
2023-02-17T12:34:00.836Z,73.03
2023-02-17T12:36:39.210Z,51.13
2023-02-17T12:39:25.661Z,34.97
2023-02-17T12:42:11.502Z,36.92
2023-02-17T12:44:45.360Z,35.83
2023-02-17T12:47:43.637Z,35.10
2023-02-17T12:50:27.633Z,39.00
2023-02-17T12:53:28.794Z,29.75
2023-02-17T12:55:59.866Z,32.42
2023-02-17T12:58:29.890Z,36.00
2023-02-17T13:01:19.445Z,39.22
2023-02-17T13:08:12.239Z,28.25
2023-02-17T13:10:41.686Z,36.10
2023-02-17T13:13:30.145Z,32.58
2023-02-17T13:16:13.597Z,31.90
2023-02-17T13:18:44.173Z,38.33
2023-02-17T13:21:25.220Z,42.08
2023-02-17T13:24:30.801Z,33.78
2023-02-17T13:27:21.732Z,37.40
2023-02-17T13:30:12.850Z,34.92
2023-02-17T13:32:41.142Z,31.70
2023-02-17T13:35:36.144Z,34.45
2023-02-17T13:38:13.824Z,50.85
2023-02-17T13:40:44.222Z,33.88
2023-02-17T13:43:17.970Z,28.92
2023-02-17T13:45:53.068Z,35.17
2023-02-17T13:48:21.704Z,34.17
2023-02-17T13:50:55.834Z,38.40
2023-02-17T13:53:35.445Z,32.78
2023-02-17T13:56:10.446Z,35.40
2023-02-17T13:58:42.726Z,36.93
2023-02-17T14:01:18.079Z,38.35
2023-02-17T14:03:51.156Z,38.08
2023-02-17T14:06:32.943Z,51.95
2023-02-17T14:09:01.182Z,41.28
2023-02-17T14:11:32.972Z,37.90
2023-02-17T14:14:02.886Z,36.92
2023-02-17T14:16:39.183Z,40.53
2023-02-17T14:19:12.951Z,43.53
2023-02-17T14:21:46.651Z,35.90
2023-02-17T14:24:35.990Z,36.90
2023-02-17T14:27:14.431Z,37.97
2023-02-17T14:29:44.081Z,52.80
2023-02-17T14:32:35.432Z,46.03
2023-02-17T14:35:13.338Z,52.40
2023-02-17T14:37:42.898Z,46.53
2023-02-17T14:40:26.448Z,68.45
2023-02-17T14:42:54.462Z,62.80
2023-02-17T14:45:23.301Z,59.25
2023-02-17T14:47:52.471Z,52.72
2023-02-17T14:50:20.615Z,49.60
2023-02-17T14:52:50.435Z,86.28
2023-02-17T14:55:42.464Z,48.47
2023-02-17T14:58:29.472Z,40.90
2023-02-17T15:00:58.479Z,53.75
2023-02-17T15:03:29.552Z,54.73
2023-02-17T15:05:58.265Z,40.15
2023-02-17T15:08:32.682Z,37.78
2023-02-17T15:11:03.085Z,35.38
2023-02-17T15:13:32.271Z,36.15
2023-02-17T15:16:02.058Z,35.97
2023-02-17T15:18:30.188Z,32.83
2023-02-17T15:20:58.899Z,45.40
2023-02-17T15:23:32.233Z,34.45
2023-02-17T15:26:06.317Z,36.97
2023-02-17T15:28:34.525Z,38.87
2023-02-17T15:31:02.941Z,45.17
2023-02-17T15:33:31.157Z,47.33
2023-02-17T15:35:59.788Z,42.47
2023-02-17T15:41:43.865Z,65.77
2023-02-17T15:44:53.841Z,39.28
2023-02-17T15:47:22.420Z,47.92
2023-02-17T15:49:51.262Z,38.00
2023-02-17T15:52:19.724Z,33.53
2023-02-17T15:54:48.943Z,35.57
2023-02-17T15:57:22.734Z,36.80
2023-02-17T15:59:55.719Z,41.53
2023-02-17T16:02:25.693Z,44.88
2023-02-17T16:04:54.689Z,61.53
2023-02-17T16:07:22.867Z,51.47
2023-02-17T16:09:54.928Z,44.17
2023-02-17T16:12:30.417Z,68.28
2023-02-17T16:15:20.297Z,45.63
2023-02-17T16:17:51.418Z,46.15
2023-02-17T16:20:34.847Z,39.27
2023-02-17T16:23:11.114Z,58.00
2023-02-17T16:25:47.015Z,57.10
2023-02-17T16:28:25.217Z,51.33
2023-02-17T16:30:56.496Z,40.50
2023-02-17T16:33:26.329Z,43.80
2023-02-17T16:35:54.841Z,36.75
2023-02-17T16:38:24.918Z,35.60
2023-02-17T16:40:53.948Z,38.28
2023-02-17T16:43:24.581Z,39.75
2023-02-17T16:46:00.606Z,36.00
2023-02-17T16:48:32.016Z,38.17
2023-02-17T16:51:00.548Z,33.50
2023-02-17T16:53:28.715Z,37.65
2023-02-17T16:55:57.382Z,34.15
2023-02-17T16:58:27.133Z,34.60
2023-02-17T17:00:56.987Z,29.17
2023-02-17T17:03:24.957Z,26.50
2023-02-17T17:05:53.614Z,25.98
2023-02-17T17:08:22.422Z,28.42
2023-02-17T17:10:51.187Z,27.13
2023-02-17T17:13:19.166Z,33.78
2023-02-17T17:15:47.723Z,35.25
2023-02-17T17:18:21.436Z,31.70
2023-02-17T17:20:50.404Z,29.52
2023-02-17T17:23:19.304Z,32.50
2023-02-17T17:25:48.946Z,31.02
2023-02-17T17:28:19.249Z,33.83
2023-02-17T17:30:48.261Z,30.35
2023-02-17T17:33:16.806Z,29.98
2023-02-17T17:35:45.366Z,29.70
2023-02-17T17:38:16.855Z,39.33
2023-02-17T17:40:56.553Z,40.70
2023-02-17T17:43:24.740Z,29.15
2023-02-17T17:45:53.261Z,29.00
2023-02-17T17:48:21.373Z,33.87
2023-02-17T17:50:51.962Z,35.13
2023-02-17T17:53:19.807Z,34.35
2023-02-17T17:55:48.709Z,37.10
2023-02-17T17:58:17.638Z,32.70
2023-02-17T18:00:46.175Z,33.17
2023-02-17T18:03:15.356Z,33.60
2023-02-17T18:05:43.789Z,35.65
2023-02-17T18:08:12.830Z,31.70
2023-02-17T18:10:42.684Z,31.88
2023-02-17T18:13:14.565Z,39.67
2023-02-17T18:15:46.995Z,48.03
2023-02-17T18:18:15.828Z,40.25
2023-02-17T18:20:48.778Z,38.10
2023-02-17T18:23:17.064Z,34.95
2023-02-17T18:25:45.360Z,41.43
2023-02-17T18:28:13.894Z,44.45
2023-02-17T18:30:43.800Z,43.63
2023-02-17T18:33:11.910Z,61.80
2023-02-17T18:35:40.531Z,69.30
2023-02-17T18:38:09.488Z,53.13
2023-02-17T18:40:41.914Z,52.25
2023-02-17T18:43:10.385Z,51.78
2023-02-17T18:45:38.818Z,48.28
2023-02-17T18:48:06.766Z,45.58
2023-02-17T18:50:35.342Z,48.63
2023-02-17T18:53:05.280Z,48.00
2023-02-17T18:55:37.460Z,47.60
2023-02-17T18:58:05.763Z,49.00
2023-02-17T19:00:33.923Z,46.20
2023-02-17T19:03:02.023Z,51.13
2023-02-17T19:05:30.785Z,44.47
2023-02-17T19:07:58.898Z,53.15
2023-02-17T19:10:27.683Z,44.78
2023-02-17T19:12:55.653Z,43.35
2023-02-17T19:15:28.506Z,45.07
2023-02-17T19:17:59.601Z,45.35
2023-02-17T19:20:29.144Z,49.58
2023-02-17T19:22:56.999Z,46.97
2023-02-17T19:25:26.006Z,47.45
2023-02-17T19:27:53.901Z,47.13
2023-02-17T19:30:22.448Z,47.60
2023-02-17T19:32:50.164Z,50.55
2023-02-17T19:35:18.587Z,48.20
2023-02-17T19:37:46.356Z,53.28
2023-02-17T19:40:14.644Z,54.07
2023-02-17T19:42:42.589Z,53.92
2023-02-17T19:45:10.968Z,56.50
2023-02-17T19:47:38.982Z,49.85
2023-02-17T19:50:08.098Z,57.05
2023-02-17T19:52:37.810Z,50.73
2023-02-17T19:55:06.452Z,48.65
2023-02-17T19:57:35.481Z,62.58
2023-02-17T20:00:04.771Z,64.68
2023-02-17T20:02:32.779Z,63.58
2023-02-17T20:05:01.993Z,63.20
2023-02-17T20:07:30.028Z,59.28
2023-02-17T20:10:23.791Z,55.70
2023-02-17T20:13:07.139Z,56.75
2023-02-17T20:15:43.680Z,58.25
2023-02-17T20:18:35.580Z,56.03
2023-02-17T20:21:23.362Z,58.13
2023-02-17T20:23:55.355Z,58.05
2023-02-17T20:26:41.566Z,56.20
2023-02-17T20:29:20.991Z,60.30
2023-02-17T20:31:55.205Z,79.37
2023-02-17T20:34:32.541Z,79.93
2023-02-17T20:37:01.597Z,94.20
2023-02-17T20:39:29.530Z,87.38
2023-02-17T20:41:57.864Z,80.65
2023-02-17T20:44:28.789Z,96.03
2023-02-17T20:46:57.574Z,87.38
2023-02-17T20:49:25.999Z,107.70
2023-02-17T20:51:54.588Z,82.32
2023-02-17T20:54:26.030Z,90.25
2023-02-17T20:56:56.168Z,85.93
2023-02-17T20:59:23.732Z,82.43
2023-02-17T21:01:51.923Z,86.28
2023-02-17T21:04:19.725Z,79.03
2023-02-17T21:06:48.302Z,74.57
2023-02-17T21:09:18.578Z,68.20
2023-02-17T21:11:46.884Z,70.13
2023-02-17T21:14:15.026Z,69.55
2023-02-17T21:16:43.336Z,65.28
2023-02-17T21:19:11.067Z,65.78
2023-02-17T21:21:41.293Z,66.73
2023-02-17T21:24:09.077Z,68.82
2023-02-17T21:26:37.334Z,58.55
2023-02-17T21:29:05.366Z,62.30
2023-02-17T21:31:33.927Z,60.33
2023-02-17T21:34:01.970Z,60.37
2023-02-17T21:36:30.111Z,56.33
2023-02-17T21:38:58.377Z,58.45
2023-02-17T21:41:28.106Z,62.00
2023-02-17T21:44:14.743Z,62.50
2023-02-17T21:46:43.731Z,69.27
2023-02-17T21:49:12.759Z,64.03
2023-02-17T21:51:41.683Z,66.47
2023-02-17T21:54:10.540Z,62.17
2023-02-17T21:56:39.025Z,56.15
2023-02-17T21:59:07.981Z,59.70
2023-02-17T22:01:36.389Z,59.17
2023-02-17T22:04:04.643Z,60.60
2023-02-17T22:06:35.912Z,52.97
2023-02-17T22:09:06.222Z,52.83
2023-02-17T22:11:37.086Z,56.80
2023-02-17T22:14:10.618Z,58.22
2023-02-17T22:16:39.413Z,56.05
2023-02-17T22:19:09.364Z,57.72
2023-02-17T22:21:39.453Z,60.72
2023-02-17T22:24:07.555Z,57.57
2023-02-17T22:26:35.511Z,61.08
2023-02-17T22:29:03.990Z,58.45
2023-02-17T22:31:33.087Z,54.45
2023-02-17T22:34:04.058Z,48.53
2023-02-17T22:36:35.011Z,46.73
2023-02-17T22:39:04.733Z,47.20
2023-02-17T22:41:34.358Z,50.55
2023-02-17T22:44:03.411Z,49.70
2023-02-17T22:46:32.095Z,51.83
2023-02-17T22:49:00.584Z,48.63
2023-02-17T22:51:34.074Z,54.88
2023-02-17T22:54:02.788Z,51.90
2023-02-17T22:56:31.591Z,48.20
2023-02-17T22:59:05.348Z,50.00
2023-02-17T23:01:35.815Z,46.37
2023-02-17T23:04:04.773Z,50.75
2023-02-17T23:06:35.914Z,48.08
2023-02-17T23:09:06.708Z,44.92
2023-02-17T23:11:55.745Z,50.08
2023-02-17T23:14:26.541Z,45.93
2023-02-17T23:16:58.473Z,45.65
2023-02-17T23:19:26.817Z,43.47
2023-02-17T23:21:59.569Z,46.22
2023-02-17T23:24:28.343Z,43.85
2023-02-17T23:26:59.094Z,41.70
2023-02-17T23:29:28.676Z,42.83
2023-02-17T23:31:57.188Z,44.83
2023-02-17T23:34:25.409Z,42.65
2023-02-17T23:36:53.427Z,35.08
2023-02-17T23:39:21.070Z,36.57
2023-02-17T23:41:49.151Z,35.50
2023-02-17T23:44:17.964Z,35.80
2023-02-17T23:46:46.241Z,39.15
2023-02-17T23:49:18.719Z,34.35
2023-02-17T23:51:47.593Z,34.20
2023-02-17T23:54:15.563Z,31.77
2023-02-17T23:56:44.473Z,35.38
2023-02-17T23:59:12.495Z,30.58
